x

Buzzards Bay, Ma (buzm3) Weather Station

8:00 - Thu 17th Aug 2017 All times are EDT. -4 hours from GMT.

  • Wind
    11mph, 13mph gusts
  • Aire Temp 65°f
  • Sea Pressure 1018.5mb
  • Buzzards Bay, Ma
  • Buzzards Bay, Ma

More Historic Weather Station data

Upgrade to MSW Pro to gain access to the past 30 days of data for over 8000 Wavebouys and Weather Stations around the globe.

Join

Comparision Forecast

View Surf forecast
   
jue 08/17 8:00 11 13 mph 1018.5mb 65f
7:00 11 11 mph 1018mb 65f
6:00 13 15 mph 1017.5mb 66f
5:00 16 18 mph 1017.1mb 67f
4:00 16 17 mph 1016.6mb 68f
3:00 15 17 mph 1016.2mb 69f
2:00 17 18 mph 1016.1mb 70f
1:00 14 15 mph 1016mb 69f
12:00 6 7 mph 1016mb 70f
mié 08/16 11:00 5 6 mph 1016mb 71f
10:00 11 11 mph 1015.7mb 72f
9:00 6 7 mph 1015.4mb 73f
8:00 10 10 mph 1014.8mb 72f
7:00 11 11 mph 1014.2mb 72f
6:00 9 10 mph 1013.8mb 73f
5:00 13 13 mph 1013.4mb 73f
4:00 11 13 mph 1013.3mb 73f
3:00 9 9 mph 1013.4mb 75f
2:00 7 8 mph 1013.5mb 77f
1:00 2 3 mph 1013.5mb 76f
12:00 3 5 mph 1013.5mb 75f
11:00 7 8 mph 1013.3mb 74f
10:00 9 9 mph 1013mb 72f
9:00 13 13 mph 1013.2mb 70f
8:00 13 14 mph 1013.3mb 69f
7:00 13 14 mph 1013mb 69f
6:00 11 11 mph 1012.7mb 67f
5:00 13 13 mph 1012.8mb 67f
4:00 14 16 mph 1012.8mb 68f
3:00 13 14 mph 1012.7mb 69f
2:00 9 10 mph 1012.4mb 68f
1:00 11 13 mph 1012.5mb 69f
12:00 9 9 mph 1012.7mb 68f
mar 08/15 11:00 11 13 mph 1012.6mb 68f
10:00 13 13 mph 1012.9mb 68f
9:00 11 13 mph 1013.3mb 68f
8:00 10 11 mph 1013.5mb 68f
7:00 11 11 mph 1013.6mb 68f
6:00 13 14 mph 1013.4mb 69f
5:00 16 16 mph 1013.2mb 69f
4:00 9 10 mph 1013.4mb 69f
3:00 10 10 mph 1013.7mb 69f
2:00 9 10 mph 1013.9mb 69f
1:00 9 9 mph 1013.9mb 69f
12:00 2 2 mph 1014.2mb 70f
11:00  -  1 mph 1014.5mb 72f
10:00 5 5 mph 1014.8mb 70f
9:00 6 6 mph 1014.7mb 69f
8:00 13 14 mph 1014.9mb 68f
7:00 11 11 mph 1014.9mb 70f
6:00 8 8 mph 1014.8mb 71f
5:00 9 9 mph 1014.6mb 71f
4:00 10 10 mph 1014.8mb 70f
3:00 9 9 mph 1014.4mb 70f
2:00 8 8 mph 1014.8mb 70f
1:00 7 7 mph 1015.2mb 70f
12:00 7 7 mph 1015.3mb 69f
lun 08/14 11:00 8 9 mph 1015.6mb 68f
10:00 9 10 mph 1015.8mb 68f
9:00 9 10 mph 1015.7mb 68f
7:00 11 11 mph 1015.6mb 68f
6:00 8 8 mph 1015.8mb 68f
5:00 8 8 mph 1016mb 69f
4:00 7 7 mph 1016.4mb 70f
3:00 6 7 mph 1016.7mb 69f
2:00 3 3 mph 1016.9mb 70f
1:00 6 7 mph 1017.4mb 71f
12:00 6 6 mph 1017.8mb 69f
11:00 8 9 mph 1018mb 70f
10:00 9 9 mph 1018mb 70f
9:00 7 7 mph 1017.9mb 69f
8:00 6 6 mph 1018mb 69f
7:00 6 6 mph 1017.7mb 69f
6:00 7 7 mph 1017.3mb 69f
5:00 6 6 mph 1016.8mb 70f
4:00 6 6 mph 1016.9mb 71f
3:00 5 5 mph 1017mb 70f
2:00 6 6 mph 1016.7mb 71f
1:00 5 6 mph 1016.6mb 71f
12:00 6 8 mph 1016.3mb 73f
dom 08/13 11:00 8 8 mph 1015.9mb 73f
10:00 6 6 mph 1015.6mb 74f
9:00 10 11 mph 1015.1mb 75f
8:00 7 8 mph 1014.3mb 77f
7:00 10 11 mph 1013.7mb 77f
6:00 11 13 mph 1013.3mb 77f
5:00 15 16 mph 1012.8mb 75f
4:00 15 15 mph 1012.7mb 73f
3:00 14 14 mph 1012.2mb 72f
2:00 11 13 mph 1012mb 70f